Big Bear Station Historical Data
Daily Summary for June 22, 2017 Units:  English    Metric   Both
« Previous Day
Next Day »
Daily Weekly Monthly Yearly Custom
  High: Low: Average:
Temperature: 91.6 °F 53.2 °F 72.9 °F
Dew Point: 47.5 °F 16.6 °F 28.7 °F
Humidity: 65 % 8 % 24 %
Wind Speed: 6.8 mph 0.0 mph 2 mph
Wind Gust: -999.0 mph - -
Wind:- - WSW
Pressure: 30.24 in 30.14 in -
Precipitation: 0.00 in    
Historical Graphs
 
 
Tabular Data for June 22, 2017
Time Temperature Dew Point Pressure Wind Wind Speed Wind Gust Humidity Rainfall Rate (Hourly)
00:14 59.0 °F 27.6 °F 30.16 in Calm   -999.0 mph 30 % 0 in
00:29 58.1 °F 30.6 °F 30.16 in Calm   -999.0 mph 35 % 0 in
00:45 57.6 °F 24.7 °F 30.16 in Calm   -999.0 mph 28 % 0 in
01:00 57.0 °F 26.6 °F 30.16 in Calm   -999.0 mph 31 % 0 in
01:15 56.7 °F 34.4 °F 30.16 in Calm   -999.0 mph 43 % 0 in
01:30 56.3 °F 34.7 °F 30.16 in Calm   -999.0 mph 44 % 0 in
01:45 55.8 °F 38.4 °F 30.15 in Calm   -999.0 mph 52 % 0 in
02:01 55.4 °F 40.0 °F 30.15 in Calm   -999.0 mph 56 % 0 in
02:16 55.2 °F 39.8 °F 30.15 in Calm   -999.0 mph 56 % 0 in
02:31 54.9 °F 39.0 °F 30.15 in Calm   -999.0 mph 55 % 0 in
02:46 54.5 °F 40.0 °F 30.14 in Calm   -999.0 mph 58 % 0 in
03:02 54.5 °F 41.7 °F 30.14 in Calm   -999.0 mph 62 % 0 in
03:17 54.1 °F 42.2 °F 30.14 in Calm   -999.0 mph 64 % 0 in
03:32 53.8 °F 42.3 °F 30.14 in Calm   -999.0 mph 65 % 0 in
03:47 53.6 °F 39.6 °F 30.14 in Calm   -999.0 mph 59 % 0 in
04:02 53.8 °F 35.6 °F 30.14 in Calm   -999.0 mph 50 % 0 in
04:18 53.6 °F 32.8 °F 30.14 in Calm   -999.0 mph 45 % 0 in
04:33 53.4 °F 35.2 °F 30.14 in Calm   -999.0 mph 50 % 0 in
04:48 53.2 °F 36.5 °F 30.14 in Calm   -999.0 mph 53 % 0 in
05:03 53.2 °F 35.5 °F 30.14 in Calm   -999.0 mph 51 % 0 in
05:18 54.3 °F 34.0 °F 30.14 in South 1.7 mph -999.0 mph 46 % 0 in
05:34 57.9 °F 18.2 °F 30.14 in South 2.2 mph -999.0 mph 21 % 0 in
05:49 58.5 °F 18.7 °F 30.14 in SSW 2.2 mph -999.0 mph 21 % 0 in
06:04 59.2 °F 21.4 °F 30.14 in South 1.7 mph -999.0 mph 23 % 0 in
06:19 60.4 °F 19.1 °F 30.14 in Calm   -999.0 mph 20 % 0 in
06:34 61.3 °F 18.7 °F 30.15 in Calm   -999.0 mph 19 % 0 in
06:50 64.2 °F 18.4 °F 30.15 in Calm   -999.0 mph 17 % 0 in
07:05 65.5 °F 16.6 °F 30.16 in Calm   -999.0 mph 15 % 0 in
07:20 67.1 °F 17.9 °F 30.16 in Calm   -999.0 mph 15 % 0 in
07:35 68.0 °F 17.0 °F 30.17 in Calm   -999.0 mph 14 % 0 in
07:51 70.0 °F 18.6 °F 30.17 in Calm   -999.0 mph 14 % 0 in
08:06 72.1 °F 18.5 °F 30.17 in East 2.2 mph -999.0 mph 13 % 0 in
08:21 73.0 °F 21.0 °F 30.17 in NNE 2.2 mph -999.0 mph 14 % 0 in
08:36 74.3 °F 20.3 °F 30.18 in West 2.7 mph -999.0 mph 13 % 0 in
08:52 75.0 °F 18.9 °F 30.18 in NNW 3.7 mph -999.0 mph 12 % 0 in
09:07 76.1 °F 19.8 °F 30.18 in NW 5.3 mph -999.0 mph 12 % 0 in
09:22 76.8 °F 18.3 °F 30.18 in SSW 6.8 mph -999.0 mph 11 % 0 in
09:37 77.5 °F 18.8 °F 30.19 in NE 3.2 mph -999.0 mph 11 % 0 in
09:52 78.8 °F 19.8 °F 30.19 in South 5.8 mph -999.0 mph 11 % 0 in
10:08 79.7 °F 18.3 °F 30.19 in West 4.7 mph -999.0 mph 10 % 0 in
10:23 80.8 °F 23.4 °F 30.20 in South 2.2 mph -999.0 mph 12 % 0 in
10:38 81.5 °F 19.7 °F 30.20 in South 3.7 mph -999.0 mph 10 % 0 in
10:54 82.4 °F 20.4 °F 30.20 in North 2.7 mph -999.0 mph 10 % 0 in
11:09 83.1 °F 18.4 °F 30.20 in WNW 3.2 mph -999.0 mph 9 % 0 in
11:24 84.9 °F 26.6 °F 30.20 in NNW 4.7 mph -999.0 mph 12 % 0 in
11:39 86.2 °F 29.6 °F 30.20 in WNW 3.7 mph -999.0 mph 13 % 0 in
11:54 87.4 °F 24.2 °F 30.20 in WNW 1.1 mph -999.0 mph 10 % 0 in
12:10 88.9 °F 22.8 °F 30.21 in West 2.2 mph -999.0 mph 9 % 0 in
12:25 90.1 °F 20.9 °F 30.21 in SSW 2.7 mph -999.0 mph 8 % 0 in
12:40 90.1 °F 28.5 °F 30.21 in NW 4.7 mph -999.0 mph 11 % 0 in
12:55 90.7 °F 24.1 °F 30.21 in West 6.8 mph -999.0 mph 9 % 0 in
13:11 89.8 °F 20.7 °F 30.21 in WNW 2.7 mph -999.0 mph 8 % 0 in
13:26 90.5 °F 24.0 °F 30.21 in NNE 4.7 mph -999.0 mph 9 % 0 in
13:41 90.3 °F 23.8 °F 30.21 in NNW 5.3 mph -999.0 mph 9 % 0 in
13:56 89.4 °F 20.4 °F 30.21 in ESE 2.7 mph -999.0 mph 8 % 0 in
14:11 91.6 °F 24.8 °F 30.21 in WSW 6.3 mph -999.0 mph 9 % 0 in
14:27 90.5 °F 26.5 °F 30.21 in NW 6.3 mph -999.0 mph 10 % 0 in
14:42 91.0 °F 26.9 °F 30.21 in West 4.7 mph -999.0 mph 10 % 0 in
14:58 91.2 °F 21.7 °F 30.21 in West 4.2 mph -999.0 mph 8 % 0 in
15:13 90.9 °F 29.1 °F 30.20 in NNE 3.2 mph -999.0 mph 11 % 0 in
15:28 90.1 °F 30.7 °F 30.20 in NW 6.3 mph -999.0 mph 12 % 0 in
15:43 89.1 °F 31.9 °F 30.21 in WNW 4.2 mph -999.0 mph 13 % 0 in
15:58 89.4 °F 37.3 °F 30.20 in NNW 4.7 mph -999.0 mph 16 % 0 in
16:14 88.3 °F 31.2 °F 30.20 in NW 4.7 mph -999.0 mph 13 % 0 in
16:29 88.9 °F 31.7 °F 30.20 in NNW 4.7 mph -999.0 mph 13 % 0 in
16:44 89.2 °F 30.0 °F 30.20 in NW 5.8 mph -999.0 mph 12 % 0 in
16:59 90.5 °F 31.0 °F 30.20 in NW 4.2 mph -999.0 mph 12 % 0 in
17:14 91.2 °F 31.5 °F 30.20 in NW 4.7 mph -999.0 mph 12 % 0 in
17:30 90.3 °F 34.7 °F 30.20 in NW 6.3 mph -999.0 mph 14 % 0 in
17:45 91.6 °F 44.9 °F 30.19 in NNW 3.2 mph -999.0 mph 20 % 0 in
18:00 88.9 °F 47.5 °F 30.20 in NW 4.2 mph -999.0 mph 24 % 0 in
18:16 87.4 °F 42.7 °F 30.20 in NW 2.7 mph -999.0 mph 21 % 0 in
18:31 87.3 °F 40.0 °F 30.20 in NNW 2.2 mph -999.0 mph 19 % 0 in
18:46 87.6 °F 41.6 °F 30.20 in WNW 2.2 mph -999.0 mph 20 % 0 in
19:02 86.4 °F 41.9 °F 30.20 in NW 2.7 mph -999.0 mph 21 % 0 in
19:17 83.3 °F 33.9 °F 30.20 in Calm   -999.0 mph 17 % 0 in
19:32 79.5 °F 30.9 °F 30.20 in Calm   -999.0 mph 17 % 0 in
19:47 77.4 °F 29.2 °F 30.21 in Calm   -999.0 mph 17 % 0 in
20:02 73.8 °F 29.0 °F 30.21 in Calm   -999.0 mph 19 % 0 in
20:18 71.8 °F 27.3 °F 30.21 in Calm   -999.0 mph 19 % 0 in
20:33 70.5 °F 24.9 °F 30.21 in South 2.2 mph -999.0 mph 18 % 0 in
20:48 69.8 °F 23.0 °F 30.21 in Calm   -999.0 mph 17 % 0 in
21:03 68.4 °F 31.2 °F 30.22 in Calm   -999.0 mph 25 % 0 in
21:18 66.7 °F 31.7 °F 30.22 in Calm   -999.0 mph 27 % 0 in
21:34 65.7 °F 27.9 °F 30.22 in Calm   -999.0 mph 24 % 0 in
21:49 64.6 °F 28.9 °F 30.23 in Calm   -999.0 mph 26 % 0 in
22:04 63.9 °F 27.4 °F 30.23 in Calm   -999.0 mph 25 % 0 in
22:20 63.0 °F 32.7 °F 30.24 in SSE 1.7 mph -999.0 mph 32 % 0 in
22:35 61.9 °F 30.9 °F 30.24 in South 1.7 mph -999.0 mph 31 % 0 in
22:50 61.3 °F 28.8 °F 30.23 in South 1.7 mph -999.0 mph 29 % 0 in
23:05 60.8 °F 27.5 °F 30.24 in Calm   -999.0 mph 28 % 0 in
23:20 60.3 °F 29.5 °F 30.24 in Calm   -999.0 mph 31 % 0 in
23:36 60.1 °F 32.3 °F 30.24 in Calm   -999.0 mph 35 % 0 in
23:51 59.4 °F 35.7 °F 30.24 in Calm   -999.0 mph 41 % 0 in
Big Bear CA Weather
Compliments of Weather Underground - 1.5 mb